Time;durP1;ratioP1;P1;durP2;ratioP2;P2;SDS_P1;SDS_P2;PMS_P1;PMS_P2;Temp;Humidity;BMP_temperature;BMP_pressure;BME280_temperature;BME280_humidity;BME280_pressure;Samples;Min_cycle;Max_cycle;Signal;HPM_P1;HPM_P2
2021/07/19 00:01:02;;;;;;;6.37;4.83;;;19.50;99.90;;;;;;5116579;28;20491;-66
2021/07/19 00:03:29;;;;;;;7.37;5.77;;;19.50;99.90;;;;;;5114359;28;20438;-65
2021/07/19 00:05:56;;;;;;;6.93;5.67;;;19.50;99.90;;;;;;5110722;28;20778;-64
2021/07/19 00:08:27;;;;;;;6.40;5.17;;;19.50;99.90;;;;;;5114296;28;20580;-64
2021/07/19 00:10:54;;;;;;;8.47;6.10;;;19.60;99.90;;;;;;5109662;28;20794;-64
2021/07/19 00:13:24;;;;;;;5.07;4.57;;;19.40;99.90;;;;;;5108991;28;20977;-64
2021/07/19 00:15:51;;;;;;;10.73;6.80;;;19.30;99.90;;;;;;5108837;28;20767;-65
2021/07/19 00:18:18;;;;;;;10.10;6.80;;;19.30;99.90;;;;;;5112460;28;20782;-64
2021/07/19 00:20:45;;;;;;;6.50;5.83;;;19.20;99.90;;;;;;5111929;28;20604;-64
2021/07/19 00:23:13;;;;;;;8.27;6.10;;;19.30;99.90;;;;;;5115442;28;20409;-64
2021/07/19 00:25:40;;;;;;;6.40;5.30;;;19.20;99.90;;;;;;5113063;28;20465;-64
2021/07/19 00:28:07;;;;;;;6.57;5.60;;;19.30;99.90;;;;;;5111220;28;20430;-64
2021/07/19 00:30:37;;;;;;;6.70;6.00;;;19.40;99.90;;;;;;5109585;28;20438;-65
2021/07/19 00:33:04;;;;;;;6.63;5.80;;;19.50;99.90;;;;;;5107485;28;20531;-65
2021/07/19 00:35:32;;;;;;;10.10;5.33;;;19.60;99.90;;;;;;5104163;28;20430;-65
2021/07/19 00:37:59;;;;;;;7.43;6.67;;;19.70;99.90;;;;;;5112626;28;20430;-65
2021/07/19 00:40:29;;;;;;;6.70;6.00;;;19.70;99.90;;;;;;5108513;28;20473;-64
2021/07/19 00:42:56;;;;;;;12.80;5.70;;;19.70;99.90;;;;;;5111697;28;20442;-65
2021/07/19 00:45:26;;;;;;;8.20;6.57;;;19.60;99.90;;;;;;5108400;28;20438;-65
2021/07/19 00:47:55;;;;;;;8.40;6.10;;;19.60;99.90;;;;;;5112628;28;20435;-64
2021/07/19 00:50:24;;;;;;;8.10;6.30;;;19.50;99.90;;;;;;5112301;28;20470;-65
2021/07/19 00:52:57;;;;;;;8.00;6.90;;;19.40;99.90;;;;;;5114505;28;20454;-66
2021/07/19 00:55:55;;;;;;;7.57;6.77;;;19.40;99.90;;;;;;5105592;28;20440;-64
2021/07/19 00:58:25;;;;;;;8.23;7.40;;;19.20;99.90;;;;;;5086782;28;20450;-64
2021/07/19 01:00:54;;;;;;;11.50;7.27;;;19.10;99.90;;;;;;5107025;28;20456;-65
2021/07/19 01:03:24;;;;;;;7.17;6.50;;;19.10;99.90;;;;;;5111730;28;20412;-64
2021/07/19 01:05:54;;;;;;;7.63;6.20;;;19.10;99.90;;;;;;5110578;28;20413;-64
2021/07/19 01:08:22;;;;;;;10.20;6.67;;;19.00;99.90;;;;;;5113049;28;20458;-65
2021/07/19 01:10:49;;;;;;;8.87;8.00;;;19.10;99.90;;;;;;5115168;28;20417;-64
2021/07/19 01:13:16;;;;;;;7.10;6.33;;;19.10;99.90;;;;;;5105422;28;20820;-65
2021/07/19 01:15:44;;;;;;;16.30;8.23;;;19.00;99.90;;;;;;5105990;28;20467;-64
2021/07/19 01:18:13;;;;;;;7.33;6.30;;;18.90;99.90;;;;;;5109114;28;20525;-66
2021/07/19 01:21:04;;;;;;;8.03;7.23;;;18.80;99.90;;;;;;5109597;28;20518;-65
2021/07/19 01:24:09;;;;;;;9.23;7.23;;;18.70;99.90;;;;;;5111941;28;20891;-65
2021/07/19 01:26:54;;;;;;;9.00;6.50;;;18.90;99.90;;;;;;5114025;28;20480;-65
2021/07/19 01:29:23;;;;;;;7.83;6.70;;;18.60;99.90;;;;;;5110981;28;20631;-65
2021/07/19 01:31:52;;;;;;;9.10;7.60;;;18.50;99.90;;;;;;5106638;28;20421;-65
2021/07/19 01:34:23;;;;;;;6.63;6.03;;;18.60;99.90;;;;;;5107622;28;20518;-65
2021/07/19 01:36:55;;;;;;;8.10;6.00;;;18.40;99.90;;;;;;5110384;28;20466;-64
2021/07/19 01:39:24;;;;;;;7.27;6.57;;;18.60;99.90;;;;;;5110439;28;20435;-64
2021/07/19 01:41:53;;;;;;;8.27;7.13;;;18.60;99.90;;;;;;5107980;28;20417;-65
2021/07/19 01:44:21;;;;;;;6.53;5.83;;;18.70;99.90;;;;;;5108279;28;20438;-63
2021/07/19 01:46:50;;;;;;;13.20;7.17;;;18.90;99.90;;;;;;5105515;28;20514;-64
2021/07/19 01:49:18;;;;;;;16.00;8.40;;;19.00;99.90;;;;;;5107960;28;20748;-65
2021/07/19 01:51:46;;;;;;;8.00;6.90;;;18.90;99.90;;;;;;5113234;28;20437;-65
2021/07/19 01:54:14;;;;;;;12.17;6.90;;;18.80;99.90;;;;;;5096931;28;20459;-65
2021/07/19 01:56:43;;;;;;;9.30;6.90;;;18.80;99.90;;;;;;5109750;28;20463;-65
2021/07/19 01:59:12;;;;;;;8.87;7.07;;;18.60;99.90;;;;;;5105137;28;20442;-66
2021/07/19 02:01:40;;;;;;;8.73;6.77;;;18.60;99.90;;;;;;5114654;28;20665;-65
2021/07/19 02:04:09;;;;;;;13.93;6.93;;;18.50;99.90;;;;;;5111535;28;20443;-64
2021/07/19 02:06:40;;;;;;;9.63;6.90;;;18.60;99.90;;;;;;5116687;28;20503;-65
2021/07/19 02:09:09;;;;;;;13.13;7.73;;;18.60;99.90;;;;;;5116220;28;20415;-65
2021/07/19 02:11:37;;;;;;;8.37;6.63;;;18.70;99.90;;;;;;5118904;28;20468;-64
2021/07/19 02:14:07;;;;;;;8.20;7.50;;;18.80;99.90;;;;;;5108461;28;20425;-65
2021/07/19 02:16:38;;;;;;;7.50;6.67;;;18.60;99.90;;;;;;5113113;28;20419;-64
2021/07/19 02:19:06;;;;;;;8.97;7.13;;;18.50;99.90;;;;;;5109844;28;20475;-64
2021/07/19 02:21:33;;;;;;;9.70;7.87;;;18.50;99.90;;;;;;5114718;28;20485;-64
2021/07/19 02:24:03;;;;;;;9.13;6.97;;;18.50;99.90;;;;;;5113944;28;20819;-64
2021/07/19 02:26:31;;;;;;;8.30;7.43;;;18.50;99.90;;;;;;5116880;28;20465;-64
2021/07/19 02:28:58;;;;;;;17.50;8.23;;;18.50;99.90;;;;;;5117595;28;20755;-65
2021/07/19 02:31:26;;;;;;;9.63;8.10;;;18.50;99.90;;;;;;5108386;28;20421;-65
2021/07/19 02:33:55;;;;;;;7.80;6.53;;;18.50;99.90;;;;;;5098703;28;20464;-65
2021/07/19 02:36:22;;;;;;;8.90;8.10;;;18.40;99.90;;;;;;5108233;28;20564;-65
2021/07/19 02:38:52;;;;;;;10.37;9.37;;;18.40;99.90;;;;;;5115654;28;20480;-65
2021/07/19 02:41:22;;;;;;;8.93;7.20;;;18.40;99.90;;;;;;5109685;28;20671;-64
2021/07/19 02:43:51;;;;;;;9.40;7.80;;;18.50;99.90;;;;;;5112005;28;20479;-64
2021/07/19 02:46:25;;;;;;;8.07;6.93;;;18.40;99.90;;;;;;5114305;28;20445;-64
2021/07/19 02:48:57;;;;;;;8.00;7.20;;;18.30;99.90;;;;;;5112648;28;20466;-64
2021/07/19 02:51:27;;;;;;;7.30;6.60;;;18.40;99.90;;;;;;5116775;28;20656;-65
2021/07/19 02:53:55;;;;;;;12.30;7.83;;;18.40;99.90;;;;;;5116936;28;20829;-64
2021/07/19 02:56:23;;;;;;;7.90;6.80;;;18.40;99.90;;;;;;5113886;28;20414;-65
2021/07/19 02:58:51;;;;;;;8.63;7.10;;;18.40;99.90;;;;;;5105477;28;20461;-65
2021/07/19 03:01:20;;;;;;;9.20;7.50;;;18.40;99.90;;;;;;5116495;28;20489;-65
2021/07/19 03:03:50;;;;;;;9.30;8.10;;;18.30;99.90;;;;;;5114230;28;20462;-65
2021/07/19 03:06:25;;;;;;;12.83;8.80;;;18.20;99.90;;;;;;5115653;28;20422;-64
2021/07/19 03:08:53;;;;;;;15.57;7.77;;;18.30;99.90;;;;;;5117535;28;20440;-64
2021/07/19 03:11:40;;;;;;;9.30;7.57;;;18.30;99.90;;;;;;5112081;28;20708;-65
2021/07/19 03:14:12;;;;;;;9.77;8.17;;;18.30;99.90;;;;;;5118225;28;20834;-65
2021/07/19 03:16:43;;;;;;;16.57;8.40;;;18.30;99.90;;;;;;5115371;28;20445;-64
2021/07/19 03:19:13;;;;;;;9.40;7.77;;;18.40;99.90;;;;;;5116192;28;20446;-64
2021/07/19 03:21:43;;;;;;;9.13;7.30;;;18.40;99.90;;;;;;5114764;28;20573;-64
2021/07/19 03:24:12;;;;;;;8.63;7.30;;;18.50;99.90;;;;;;5117273;28;20445;-65
2021/07/19 03:26:41;;;;;;;8.93;7.33;;;18.50;99.90;;;;;;5110686;28;20438;-64
2021/07/19 03:29:11;;;;;;;9.20;7.30;;;18.60;99.90;;;;;;5118075;28;20584;-64
2021/07/19 03:31:39;;;;;;;10.10;7.43;;;18.70;99.90;;;;;;5117210;28;20505;-64
2021/07/19 03:34:07;;;;;;;9.60;8.10;;;18.60;99.90;;;;;;5113582;28;20423;-65
2021/07/19 03:36:35;;;;;;;8.53;7.63;;;18.50;99.90;;;;;;5114546;28;20416;-64
2021/07/19 03:39:04;;;;;;;11.10;8.77;;;18.30;99.90;;;;;;5107832;28;20442;-65
2021/07/19 03:41:33;;;;;;;9.13;6.77;;;18.20;99.90;;;;;;5114158;28;20606;-64
2021/07/19 03:44:01;;;;;;;8.03;7.23;;;18.20;99.90;;;;;;5111131;28;20408;-64
2021/07/19 03:46:29;;;;;;;7.73;6.93;;;18.40;99.90;;;;;;5115824;28;20471;-64
2021/07/19 03:48:58;;;;;;;11.40;7.70;;;18.50;99.90;;;;;;5104473;28;20425;-64
2021/07/19 03:51:28;;;;;;;10.03;8.00;;;18.70;99.90;;;;;;5112550;28;20411;-64
2021/07/19 03:53:56;;;;;;;8.23;7.43;;;19.10;99.90;;;;;;5109407;28;20491;-64
2021/07/19 03:56:26;;;;;;;8.23;6.67;;;19.30;99.90;;;;;;5114759;28;20446;-64
2021/07/19 03:58:56;;;;;;;8.63;7.73;;;19.50;99.90;;;;;;5112572;28;20462;-64
2021/07/19 04:01:24;;;;;;;7.73;6.83;;;19.60;99.90;;;;;;5110960;28;20444;-64
2021/07/19 04:03:54;;;;;;;7.27;6.60;;;19.90;99.90;;;;;;5113869;28;20461;-66
2021/07/19 04:06:23;;;;;;;6.83;6.30;;;20.20;99.90;;;;;;5110223;28;20413;-65
2021/07/19 04:08:50;;;;;;;7.80;7.00;;;20.20;99.90;;;;;;5116606;28;20753;-64
2021/07/19 04:11:19;;;;;;;9.00;6.50;;;20.40;99.90;;;;;;5115583;28;20999;-64
2021/07/19 04:13:47;;;;;;;7.13;6.47;;;20.50;99.90;;;;;;5118026;28;20469;-64
2021/07/19 04:16:16;;;;;;;8.00;7.20;;;20.50;99.90;;;;;;5111710;28;22037;-65
2021/07/19 04:18:43;;;;;;;8.33;5.93;;;20.50;99.90;;;;;;5108643;28;20479;-65
2021/07/19 04:21:11;;;;;;;8.33;6.47;;;20.90;99.90;;;;;;5114039;28;20581;-64
2021/07/19 04:23:39;;;;;;;9.27;8.40;;;21.10;99.90;;;;;;5115475;28;20464;-65
2021/07/19 04:26:06;;;;;;;7.90;6.40;;;21.20;99.90;;;;;;5116517;28;20406;-64
2021/07/19 04:28:34;;;;;;;9.50;6.43;;;21.20;99.90;;;;;;5115671;28;20489;-64
2021/07/19 04:31:02;;;;;;;7.20;6.50;;;21.10;99.90;;;;;;5116950;28;20409;-64
2021/07/19 04:33:29;;;;;;;8.30;5.83;;;21.40;99.90;;;;;;5111319;28;20456;-64
2021/07/19 04:35:56;;;;;;;8.67;6.53;;;21.40;99.90;;;;;;5114870;28;20798;-69
2021/07/19 04:38:24;;;;;;;9.07;6.10;;;21.30;99.90;;;;;;5113190;28;20460;-65
2021/07/19 04:40:54;;;;;;;6.70;6.10;;;21.30;99.90;;;;;;5115990;28;20526;-66
2021/07/19 04:43:23;;;;;;;6.53;5.80;;;21.40;99.90;;;;;;5112979;28;20407;-65
2021/07/19 04:45:51;;;;;;;6.93;6.13;;;21.20;99.90;;;;;;5112444;28;20763;-64
2021/07/19 04:48:19;;;;;;;8.37;6.57;;;21.00;99.90;;;;;;5113427;28;20782;-64
2021/07/19 04:50:47;;;;;;;18.13;6.50;;;21.10;99.90;;;;;;5110909;28;20484;-64
2021/07/19 04:53:15;;;;;;;8.60;6.53;;;21.20;99.90;;;;;;5110720;28;20546;-65
2021/07/19 04:55:49;;;;;;;11.00;7.23;;;21.20;99.90;;;;;;5110530;28;20774;-64
2021/07/19 04:58:19;;;;;;;8.73;7.07;;;21.20;99.90;;;;;;5114069;28;20504;-66
2021/07/19 05:00:51;;;;;;;10.90;5.90;;;21.20;99.90;;;;;;5107833;28;20485;-64
2021/07/19 05:03:24;;;;;;;7.43;6.17;;;21.40;99.90;;;;;;5113385;28;20431;-63
2021/07/19 05:05:53;;;;;;;9.23;7.00;;;21.60;99.90;;;;;;5109441;28;20452;-64
2021/07/19 05:08:22;;;;;;;11.17;7.80;;;22.00;99.90;;;;;;5110031;28;20436;-63
2021/07/19 05:10:51;;;;;;;6.77;6.07;;;22.30;99.90;;;;;;5115507;28;20468;-64
2021/07/19 05:13:20;;;;;;;18.30;12.10;;;22.70;99.90;;;;;;5115865;28;20652;-63
2021/07/19 05:15:48;;;;;;;8.47;6.00;;;22.90;99.90;;;;;;5113465;28;20443;-63
2021/07/19 05:18:17;;;;;;;7.10;6.40;;;22.90;99.90;;;;;;5110975;28;20900;-63
2021/07/19 05:20:49;;;;;;;18.17;6.87;;;22.80;99.90;;;;;;5114629;28;20509;-64
2021/07/19 05:23:27;;;;;;;9.50;5.97;;;22.90;99.90;;;;;;5072728;28;20415;-64
2021/07/19 05:25:56;;;;;;;7.33;6.73;;;22.90;99.90;;;;;;5115007;28;20765;-64
2021/07/19 05:28:23;;;;;;;9.20;8.27;;;23.00;99.90;;;;;;5110010;28;20424;-63
2021/07/19 05:30:52;;;;;;;8.00;7.27;;;23.10;99.90;;;;;;5115910;28;20423;-63
2021/07/19 05:33:22;;;;;;;7.33;6.73;;;23.30;99.90;;;;;;5112563;28;20417;-64
2021/07/19 05:35:53;;;;;;;11.60;8.77;;;23.40;99.90;;;;;;5112907;28;20462;-64
2021/07/19 05:38:28;;;;;;;8.97;7.43;;;23.60;99.90;;;;;;5111810;28;20714;-64
2021/07/19 05:41:01;;;;;;;12.67;7.57;;;23.60;99.90;;;;;;5098185;28;20477;-65
2021/07/19 05:43:28;;;;;;;13.10;9.80;;;23.60;99.90;;;;;;5093391;28;20510;-64
2021/07/19 05:45:55;;;;;;;12.23;8.70;;;23.50;99.90;;;;;;5110722;28;20532;-65
2021/07/19 05:48:22;;;;;;;23.00;20.40;;;23.50;99.90;;;;;;5113251;28;20412;-64
2021/07/19 05:50:49;;;;;;;12.80;10.23;;;23.90;99.90;;;;;;5112382;28;20495;-63
2021/07/19 05:53:16;;;;;;;7.77;7.07;;;24.00;99.90;;;;;;5112042;28;20438;-64
2021/07/19 05:55:44;;;;;;;10.30;7.93;;;24.10;99.90;;;;;;5110012;28;20405;-64
2021/07/19 05:58:11;;;;;;;10.20;8.23;;;24.10;99.90;;;;;;5113323;28;20667;-64
2021/07/19 06:00:38;;;;;;;9.40;8.40;;;24.40;99.90;;;;;;5108482;28;20471;-63
2021/07/19 06:03:05;;;;;;;9.13;7.73;;;24.60;99.90;;;;;;5112408;28;20473;-64
2021/07/19 06:05:32;;;;;;;7.80;6.40;;;24.80;99.90;;;;;;5111326;28;20448;-62
2021/07/19 06:07:59;;;;;;;10.47;7.77;;;24.90;99.90;;;;;;5112600;28;20438;-63
2021/07/19 06:10:26;;;;;;;9.33;8.53;;;25.30;99.90;;;;;;5114638;28;20438;-65
2021/07/19 06:12:53;;;;;;;12.57;8.50;;;25.50;99.90;;;;;;5114569;28;20448;-64
2021/07/19 06:15:20;;;;;;;11.20;10.10;;;25.70;99.90;;;;;;5115041;28;20447;-64
2021/07/19 06:17:47;;;;;;;12.10;9.03;;;25.70;99.90;;;;;;5111856;28;20454;-64
2021/07/19 06:20:27;;;;;;;10.00;8.90;;;25.40;99.90;;;;;;5112442;28;20479;-65
2021/07/19 06:23:00;;;;;;;8.20;7.50;;;25.40;99.90;;;;;;5112178;28;20438;-64
2021/07/19 06:25:29;;;;;;;8.90;8.00;;;25.60;99.90;;;;;;5110443;28;20439;-64
2021/07/19 06:27:57;;;;;;;10.10;8.67;;;25.60;99.90;;;;;;5113509;28;20483;-64
2021/07/19 06:30:24;;;;;;;10.63;8.90;;;25.70;99.90;;;;;;5114963;28;20762;-63
2021/07/19 06:32:51;;;;;;;10.00;8.63;;;25.80;99.90;;;;;;5115390;28;20487;-63
2021/07/19 06:35:18;;;;;;;13.40;9.20;;;25.90;99.90;;;;;;5110578;28;20434;-63
2021/07/19 06:37:45;;;;;;;12.43;8.63;;;26.30;99.90;;;;;;5113540;28;20817;-64
2021/07/19 06:40:13;;;;;;;15.07;9.87;;;27.30;99.90;;;;;;5111724;28;20418;-63
2021/07/19 06:42:40;;;;;;;9.50;8.50;;;28.00;99.90;;;;;;5113973;28;20460;-63
2021/07/19 06:45:11;;;;;;;10.33;9.33;;;28.00;99.90;;;;;;5108396;28;20749;-64
2021/07/19 06:47:39;;;;;;;11.57;9.20;;;27.60;99.90;;;;;;5115830;28;20434;-65
2021/07/19 06:50:08;;;;;;;9.50;8.60;;;27.40;99.90;;;;;;5094112;28;20502;-63
2021/07/19 06:52:38;;;;;;;9.57;8.67;;;27.00;99.90;;;;;;5114779;28;20469;-64
2021/07/19 06:55:07;;;;;;;9.83;8.80;;;27.60;99.90;;;;;;5115541;28;20406;-65
2021/07/19 06:57:34;;;;;;;10.50;9.57;;;28.70;99.90;;;;;;5114493;28;20480;-64
2021/07/19 07:00:02;;;;;;;12.20;10.70;;;28.90;98.60;;;;;;5116923;28;20429;-65
2021/07/19 07:02:29;;;;;;;10.70;9.80;;;28.40;98.40;;;;;;5109901;28;20491;-63
2021/07/19 07:04:56;;;;;;;11.33;9.07;;;28.10;99.40;;;;;;5116517;28;20668;-64
2021/07/19 07:07:23;;;;;;;12.47;8.77;;;28.30;98.80;;;;;;5115643;28;20542;-63
2021/07/19 07:09:50;;;;;;;10.10;9.20;;;28.30;98.70;;;;;;5116594;28;20756;-64
2021/07/19 07:12:21;;;;;;;9.43;8.43;;;28.30;98.80;;;;;;5117469;28;20466;-64
2021/07/19 07:14:48;;;;;;;10.10;9.10;;;27.70;98.70;;;;;;5116071;28;20818;-63
2021/07/19 07:17:16;;;;;;;9.33;8.53;;;27.30;99.90;;;;;;5118623;28;20422;-63
2021/07/19 07:19:43;;;;;;;9.37;8.47;;;27.40;99.30;;;;;;5115588;28;20468;-63
2021/07/19 07:22:11;;;;;;;12.10;8.50;;;28.20;99.10;;;;;;5117079;28;20682;-64
2021/07/19 07:24:40;;;;;;;10.10;9.10;;;29.20;97.30;;;;;;5103423;28;20444;-64
2021/07/19 07:27:11;;;;;;;9.00;8.20;;;30.10;95.60;;;;;;5098766;28;20439;-65
2021/07/19 07:29:39;;;;;;;9.80;9.10;;;30.80;94.20;;;;;;5098408;28;20443;-64
2021/07/19 07:32:07;;;;;;;10.63;9.50;;;30.40;94.80;;;;;;5104387;28;20632;-63
2021/07/19 07:34:35;;;;;;;10.87;10.07;;;30.20;95.10;;;;;;5117998;28;20706;-65
2021/07/19 07:37:03;;;;;;;9.67;8.87;;;30.00;95.10;;;;;;5098257;28;20442;-63
2021/07/19 07:39:30;;;;;;;10.20;9.40;;;30.50;93.30;;;;;;5102346;28;20439;-63
2021/07/19 07:41:57;;;;;;;11.77;9.90;;;30.30;93.60;;;;;;5104119;28;20482;-64
2021/07/19 07:44:25;;;;;;;11.13;10.27;;;30.80;93.10;;;;;;5100020;28;20440;-64
2021/07/19 07:46:52;;;;;;;11.30;10.20;;;32.10;91.60;;;;;;5106825;28;20472;-64
2021/07/19 07:49:21;;;;;;;11.83;10.97;;;34.00;88.00;;;;;;5101594;28;20502;-64
2021/07/19 07:51:48;;;;;;;13.53;12.33;;;34.50;80.90;;;;;;5102602;28;20546;-64
2021/07/19 07:54:16;;;;;;;12.93;12.03;;;34.60;82.20;;;;;;5098181;28;20462;-64
2021/07/19 07:56:43;;;;;;;11.60;10.80;;;35.80;77.70;;;;;;5114720;28;20452;-65
2021/07/19 07:59:26;;;;;;;11.93;11.13;;;36.70;73.30;;;;;;5115381;28;20441;-64
2021/07/19 08:01:53;;;;;;;13.23;12.23;;;39.40;67.00;;;;;;5103005;28;20697;-64
2021/07/19 08:04:21;;;;;;;11.90;10.90;;;39.30;63.50;;;;;;5104188;28;20645;-64
2021/07/19 08:06:48;;;;;;;12.77;11.87;;;37.20;69.70;;;;;;5098246;28;20664;-64
2021/07/19 08:09:15;;;;;;;12.97;11.77;;;34.40;76.10;;;;;;5097663;28;20488;-64
2021/07/19 08:11:42;;;;;;;13.60;12.70;;;32.70;79.80;;;;;;5097685;28;20489;-64
2021/07/19 08:14:09;;;;;;;13.47;12.37;;;30.70;85.90;;;;;;5098570;28;20462;-65
2021/07/19 08:16:39;;;;;;;12.00;11.10;;;29.60;89.50;;;;;;5098217;28;20440;-63
2021/07/19 08:19:07;;;;;;;11.70;10.90;;;28.80;91.50;;;;;;5097902;28;20436;-64
2021/07/19 08:21:36;;;;;;;11.07;10.23;;;29.70;90.70;;;;;;5100006;28;20475;-64
2021/07/19 08:24:04;;;;;;;12.40;11.40;;;31.50;86.90;;;;;;5100858;28;20444;-63
2021/07/19 08:26:31;;;;;;;11.77;10.80;;;32.60;82.80;;;;;;5104552;28;20925;-63
2021/07/19 08:28:59;;;;;;;12.30;11.27;;;32.20;82.70;;;;;;5097717;28;20783;-65
2021/07/19 08:31:27;;;;;;;10.90;10.00;;;31.10;86.20;;;;;;5101229;28;20443;-65
2021/07/19 08:33:56;;;;;;;12.87;11.60;;;30.00;88.90;;;;;;5097410;28;20787;-64
2021/07/19 08:36:24;;;;;;;12.07;11.17;;;28.80;91.20;;;;;;5096552;28;20447;-63
2021/07/19 08:38:51;;;;;;;12.13;11.13;;;27.80;92.80;;;;;;5097585;28;20775;-65
2021/07/19 08:41:18;;;;;;;12.80;11.70;;;26.90;94.50;;;;;;5096806;28;20812;-66
2021/07/19 08:43:46;;;;;;;11.70;10.70;;;26.60;95.10;;;;;;5108885;28;20445;-65
2021/07/19 08:46:13;;;;;;;11.73;10.80;;;26.00;96.50;;;;;;5107069;28;20447;-64
2021/07/19 08:48:40;;;;;;;12.37;10.33;;;25.60;97.00;;;;;;5112235;28;20464;-63
2021/07/19 08:51:09;;;;;;;11.07;10.20;;;25.50;98.00;;;;;;5113708;28;20506;-65
2021/07/19 08:53:36;;;;;;;12.30;10.23;;;25.40;98.40;;;;;;5110466;28;20834;-66
2021/07/19 08:56:07;;;;;;;13.23;11.83;;;25.20;98.50;;;;;;5109373;28;20715;-65
2021/07/19 08:58:35;;;;;;;13.13;10.80;;;24.60;99.60;;;;;;5112719;28;20529;-64
2021/07/19 09:01:03;;;;;;;11.43;10.13;;;24.40;99.90;;;;;;5096655;28;20432;-64
2021/07/19 09:03:31;;;;;;;11.37;10.37;;;24.20;99.90;;;;;;5097270;28;20485;-64
2021/07/19 09:05:58;;;;;;;11.90;10.60;;;24.00;99.90;;;;;;5096127;28;20785;-64
2021/07/19 09:08:25;;;;;;;11.20;10.10;;;24.00;99.90;;;;;;5078513;28;20435;-66
2021/07/19 09:10:52;;;;;;;10.87;9.97;;;24.10;99.90;;;;;;5080960;28;20443;-65
2021/07/19 09:13:22;;;;;;;12.67;11.47;;;24.10;99.90;;;;;;5096343;28;20475;-64
2021/07/19 09:15:58;;;;;;;10.50;9.50;;;24.20;99.90;;;;;;5096682;28;20473;-66
2021/07/19 09:18:25;;;;;;;10.73;9.83;;;23.80;99.90;;;;;;5076327;28;20640;-66
2021/07/19 09:20:52;;;;;;;11.30;10.20;;;23.40;99.90;;;;;;5089499;28;20409;-66
2021/07/19 09:23:28;;;;;;;9.47;8.57;;;23.20;99.90;;;;;;5091374;28;20674;-65
2021/07/19 09:25:56;;;;;;;12.93;10.83;;;23.20;99.90;;;;;;5089159;28;20471;-65
2021/07/19 09:28:29;;;;;;;10.93;9.80;;;23.20;99.90;;;;;;5095837;28;20661;-66
2021/07/19 09:31:08;;;;;;;9.17;8.37;;;23.10;99.90;;;;;;5096647;28;20421;-64
2021/07/19 09:33:36;;;;;;;10.23;9.20;;;22.90;99.90;;;;;;5081925;28;20488;-65
2021/07/19 09:36:04;;;;;;;13.83;9.47;;;22.50;99.90;;;;;;5096574;28;20454;-64
2021/07/19 09:38:31;;;;;;;10.83;9.87;;;22.10;99.90;;;;;;5077970;28;20734;-64
2021/07/19 09:41:01;;;;;;;10.33;9.27;;;21.70;99.90;;;;;;5096923;28;20510;-64
2021/07/19 09:43:33;;;;;;;10.50;9.50;;;21.50;99.90;;;;;;5107392;28;20777;-66
2021/07/19 09:46:03;;;;;;;11.60;10.40;;;21.20;99.90;;;;;;5096783;28;20428;-64
2021/07/19 09:48:31;;;;;;;13.33;10.43;;;21.10;99.90;;;;;;5095789;28;20415;-65
2021/07/19 09:50:59;;;;;;;12.63;9.70;;;21.00;99.90;;;;;;5096194;28;20471;-64
2021/07/19 09:53:34;;;;;;;11.13;10.10;;;21.00;99.90;;;;;;5096447;28;20427;-64
2021/07/19 09:56:22;;;;;;;10.90;8.40;;;21.00;99.90;;;;;;5083056;28;20471;-66
2021/07/19 09:58:51;;;;;;;13.80;10.30;;;21.20;99.90;;;;;;5095686;28;20468;-65
2021/07/19 10:01:36;;;;;;;13.27;9.90;;;21.40;99.90;;;;;;5104202;28;20451;-65
2021/07/19 10:04:09;;;;;;;10.67;9.17;;;21.80;99.90;;;;;;5096587;28;20767;-64
2021/07/19 10:06:39;;;;;;;11.87;9.30;;;21.70;99.90;;;;;;5096368;28;20772;-64
2021/07/19 10:09:08;;;;;;;8.60;7.80;;;22.00;99.90;;;;;;5095722;28;20755;-65
2021/07/19 10:11:38;;;;;;;10.23;9.10;;;22.10;99.90;;;;;;5081644;28;20499;-65
2021/07/19 10:14:07;;;;;;;9.23;7.53;;;22.40;99.90;;;;;;5096056;28;20834;-64
2021/07/19 10:16:35;;;;;;;6.93;6.43;;;22.90;99.90;;;;;;5095423;28;20474;-64
2021/07/19 10:19:07;;;;;;;8.60;7.70;;;22.90;99.90;;;;;;5096853;28;20413;-65
2021/07/19 10:21:35;;;;;;;6.80;6.20;;;22.90;99.90;;;;;;5081506;28;20442;-66
2021/07/19 10:24:08;;;;;;;6.63;6.03;;;22.50;99.90;;;;;;5099699;28;20807;-66
2021/07/19 10:26:36;;;;;;;6.93;6.10;;;22.60;99.90;;;;;;5099341;28;20446;-64
2021/07/19 10:29:09;;;;;;;7.03;6.33;;;22.90;99.90;;;;;;5100197;28;20413;-65
2021/07/19 10:31:36;;;;;;;7.10;6.50;;;23.40;99.90;;;;;;5099309;28;20503;-65
2021/07/19 10:34:05;;;;;;;7.17;6.43;;;23.30;99.90;;;;;;5099945;28;20444;-65
2021/07/19 10:36:50;;;;;;;9.00;6.87;;;23.00;99.90;;;;;;5099148;28;20651;-65
2021/07/19 10:39:38;;;;;;;7.87;7.10;;;23.10;99.90;;;;;;5087597;28;20481;-67
2021/07/19 10:42:11;;;;;;;6.67;6.17;;;23.70;99.90;;;;;;5099145;28;20879;-66
2021/07/19 10:44:41;;;;;;;8.07;5.70;;;24.30;99.90;;;;;;5088055;28;20443;-65
2021/07/19 10:47:19;;;;;;;7.17;6.60;;;24.30;99.90;;;;;;5077915;28;20765;-64
2021/07/19 10:50:04;;;;;;;8.47;7.60;;;23.90;99.90;;;;;;5099863;28;20580;-64
2021/07/19 10:52:36;;;;;;;9.77;7.90;;;23.20;99.90;;;;;;5085757;28;20451;-64
2021/07/19 10:55:07;;;;;;;8.13;7.27;;;23.50;99.90;;;;;;5099316;28;20754;-64
2021/07/19 10:57:41;;;;;;;8.60;6.30;;;23.90;99.90;;;;;;5098561;28;20730;-64
2021/07/19 11:00:12;;;;;;;9.50;8.60;;;24.20;99.90;;;;;;5096722;28;20744;-67
2021/07/19 11:02:39;;;;;;;7.67;7.07;;;24.40;99.90;;;;;;5098866;28;20457;-64
2021/07/19 11:05:08;;;;;;;8.00;6.40;;;24.60;99.90;;;;;;5089059;28;20447;-66
2021/07/19 11:07:43;;;;;;;6.83;6.23;;;24.80;99.90;;;;;;5107897;28;20438;-65
2021/07/19 11:10:20;;;;;;;8.23;7.50;;;24.70;99.90;;;;;;5115982;28;20433;-66
2021/07/19 11:12:51;;;;;;;7.40;6.10;;;25.00;99.90;;;;;;5111596;28;20465;-66
2021/07/19 11:15:21;;;;;;;8.50;7.40;;;24.90;99.90;;;;;;5079002;28;20550;-64
2021/07/19 11:17:49;;;;;;;9.23;7.30;;;24.80;99.90;;;;;;5109496;28;20504;-64
2021/07/19 11:20:17;;;;;;;8.33;7.23;;;25.00;99.90;;;;;;5087844;28;20487;-66
2021/07/19 11:22:44;;;;;;;8.10;7.50;;;24.80;99.90;;;;;;5106505;28;20467;-64
2021/07/19 11:25:15;;;;;;;8.10;7.40;;;24.40;99.90;;;;;;5104599;28;20488;-65
2021/07/19 11:27:45;;;;;;;8.83;6.80;;;24.60;99.90;;;;;;5108445;28;20672;-64
2021/07/19 11:30:19;;;;;;;9.23;7.57;;;24.50;99.90;;;;;;5110932;28;20443;-65
2021/07/19 11:32:46;;;;;;;11.13;7.80;;;24.10;99.90;;;;;;5115841;28;20412;-64
2021/07/19 11:35:19;;;;;;;8.20;7.40;;;23.70;99.90;;;;;;5114264;28;20495;-64
2021/07/19 11:37:49;;;;;;;7.10;6.60;;;24.00;99.90;;;;;;5116404;28;20442;-64
2021/07/19 11:40:30;;;;;;;7.20;6.50;;;24.00;99.90;;;;;;5097867;28;20455;-65
2021/07/19 11:43:07;;;;;;;8.63;7.03;;;23.90;99.90;;;;;;5114188;28;20527;-64
2021/07/19 11:45:40;;;;;;;8.07;7.37;;;23.80;99.90;;;;;;5113900;28;20426;-64
2021/07/19 11:48:09;;;;;;;7.83;7.13;;;23.90;99.90;;;;;;5115235;28;20471;-64
2021/07/19 11:50:37;;;;;;;10.73;7.13;;;24.20;99.90;;;;;;5112566;28;20498;-64
2021/07/19 11:53:04;;;;;;;15.00;7.57;;;24.80;99.90;;;;;;5116452;28;21052;-64
2021/07/19 11:55:31;;;;;;;9.03;7.20;;;24.90;99.90;;;;;;5114585;28;20827;-65
2021/07/19 11:58:02;;;;;;;7.90;7.10;;;24.90;99.90;;;;;;5099312;28;20442;-64
2021/07/19 12:00:32;;;;;;;7.70;7.10;;;25.20;99.90;;;;;;5116030;28;20467;-67
2021/07/19 12:03:04;;;;;;;7.47;6.87;;;25.30;99.90;;;;;;5108269;28;20678;-65
2021/07/19 12:05:35;;;;;;;7.33;6.63;;;25.60;99.70;;;;;;5103836;28;20479;-65
2021/07/19 12:08:05;;;;;;;7.20;6.70;;;25.40;99.80;;;;;;5097895;28;20421;-64
2021/07/19 12:10:35;;;;;;;9.00;8.17;;;25.10;99.80;;;;;;5079975;28;20443;-64
2021/07/19 12:13:11;;;;;;;9.13;8.20;;;24.90;99.90;;;;;;5108466;28;20973;-64
2021/07/19 12:15:49;;;;;;;10.40;7.10;;;24.70;99.90;;;;;;5116338;28;20454;-65
2021/07/19 12:18:33;;;;;;;7.80;7.20;;;24.50;99.90;;;;;;5114636;28;20434;-64
2021/07/19 12:21:02;;;;;;;7.97;7.23;;;24.30;99.90;;;;;;5111685;28;20442;-66
2021/07/19 12:23:57;;;;;;;7.73;6.73;;;24.30;99.90;;;;;;5096875;28;20471;-66
2021/07/19 12:26:30;;;;;;;8.70;6.80;;;24.70;99.70;;;;;;5096181;28;20443;-65
2021/07/19 12:29:05;;;;;;;7.20;6.50;;;25.00;99.90;;;;;;5099508;28;20600;-64
2021/07/19 12:31:38;;;;;;;12.00;7.83;;;25.40;99.20;;;;;;5108923;28;20773;-64
2021/07/19 12:34:20;;;;;;;9.27;8.37;;;25.50;98.80;;;;;;5095985;28;20438;-63
2021/07/19 12:36:58;;;;;;;8.00;7.30;;;25.20;98.60;;;;;;5086494;28;20440;-66
2021/07/19 12:39:31;;;;;;;8.30;7.50;;;25.00;99.10;;;;;;5098827;28;20663;-66
2021/07/19 12:42:01;;;;;;;9.20;7.70;;;24.80;99.50;;;;;;5096723;28;20443;-65
2021/07/19 12:44:30;;;;;;;7.77;7.10;;;24.90;99.60;;;;;;5096812;28;20443;-64
2021/07/19 12:46:58;;;;;;;8.37;7.70;;;25.00;99.30;;;;;;5096698;28;20620;-64
2021/07/19 12:49:32;;;;;;;8.90;8.20;;;25.40;99.40;;;;;;5097343;28;20788;-65
2021/07/19 12:52:03;;;;;;;8.20;7.60;;;25.60;98.70;;;;;;5108781;28;20438;-65
2021/07/19 12:54:59;;;;;;;10.67;8.50;;;25.50;99.10;;;;;;5112069;28;20763;-64